sensor_id;sensor_type;location;lat;lon;timestamp;temperature;humidity
45837;DHT22;31548;51.420;-0.040;2023-03-05T00:01:32;6.00;99.90
45837;DHT22;31548;51.420;-0.040;2023-03-05T00:04:00;6.00;99.90
45837;DHT22;31548;51.420;-0.040;2023-03-05T00:06:29;5.90;99.90
45837;DHT22;31548;51.420;-0.040;2023-03-05T00:08:57;5.90;99.90
45837;DHT22;31548;51.420;-0.040;2023-03-05T00:11:26;5.90;99.90
45837;DHT22;31548;51.420;-0.040;2023-03-05T00:13:57;5.90;99.90
45837;DHT22;31548;51.420;-0.040;2023-03-05T00:16:25;5.90;99.90
45837;DHT22;31548;51.420;-0.040;2023-03-05T00:18:54;5.90;99.90
45837;DHT22;31548;51.420;-0.040;2023-03-05T00:21:36;5.90;99.90
45837;DHT22;31548;51.420;-0.040;2023-03-05T00:24:09;5.90;99.90
45837;DHT22;31548;51.420;-0.040;2023-03-05T00:26:37;5.90;99.90
45837;DHT22;31548;51.420;-0.040;2023-03-05T00:29:06;5.90;99.90
45837;DHT22;31548;51.420;-0.040;2023-03-05T00:31:35;5.90;99.90
45837;DHT22;31548;51.420;-0.040;2023-03-05T00:34:11;5.90;99.90
45837;DHT22;31548;51.420;-0.040;2023-03-05T00:36:41;5.90;99.90
45837;DHT22;31548;51.420;-0.040;2023-03-05T00:39:10;6.00;99.90
45837;DHT22;31548;51.420;-0.040;2023-03-05T00:41:38;5.90;99.90
45837;DHT22;31548;51.420;-0.040;2023-03-05T00:44:05;5.90;99.90
45837;DHT22;31548;51.420;-0.040;2023-03-05T00:46:33;5.90;99.90
45837;DHT22;31548;51.420;-0.040;2023-03-05T00:49:00;5.90;99.90
45837;DHT22;31548;51.420;-0.040;2023-03-05T00:51:28;5.90;99.90
45837;DHT22;31548;51.420;-0.040;2023-03-05T00:53:55;5.90;99.90
45837;DHT22;31548;51.420;-0.040;2023-03-05T00:56:22;5.90;99.90
45837;DHT22;31548;51.420;-0.040;2023-03-05T00:58:50;5.90;99.90
45837;DHT22;31548;51.420;-0.040;2023-03-05T01:01:19;5.90;99.90
45837;DHT22;31548;51.420;-0.040;2023-03-05T01:03:46;5.90;99.90
45837;DHT22;31548;51.420;-0.040;2023-03-05T01:06:15;5.90;99.90
45837;DHT22;31548;51.420;-0.040;2023-03-05T01:08:44;5.90;99.90
45837;DHT22;31548;51.420;-0.040;2023-03-05T01:11:12;5.80;99.90
45837;DHT22;31548;51.420;-0.040;2023-03-05T01:13:40;5.80;99.90
45837;DHT22;31548;51.420;-0.040;2023-03-05T01:16:08;5.80;99.90
45837;DHT22;31548;51.420;-0.040;2023-03-05T01:18:36;5.80;99.90
45837;DHT22;31548;51.420;-0.040;2023-03-05T01:21:06;5.80;99.90
45837;DHT22;31548;51.420;-0.040;2023-03-05T01:23:33;5.80;99.90
45837;DHT22;31548;51.420;-0.040;2023-03-05T01:26:04;5.80;99.90
45837;DHT22;31548;51.420;-0.040;2023-03-05T01:28:31;5.80;99.90
45837;DHT22;31548;51.420;-0.040;2023-03-05T01:30:59;5.80;99.90
45837;DHT22;31548;51.420;-0.040;2023-03-05T01:33:26;5.80;99.90
45837;DHT22;31548;51.420;-0.040;2023-03-05T01:35:53;5.80;99.90
45837;DHT22;31548;51.420;-0.040;2023-03-05T01:38:20;5.80;99.90
45837;DHT22;31548;51.420;-0.040;2023-03-05T01:40:48;5.80;99.90
45837;DHT22;31548;51.420;-0.040;2023-03-05T01:43:29;5.80;99.90
45837;DHT22;31548;51.420;-0.040;2023-03-05T01:48:46;5.80;99.90
45837;DHT22;31548;51.420;-0.040;2023-03-05T01:51:18;5.80;99.90
45837;DHT22;31548;51.420;-0.040;2023-03-05T01:53:46;5.80;99.90
45837;DHT22;31548;51.420;-0.040;2023-03-05T01:56:14;5.80;99.90
45837;DHT22;31548;51.420;-0.040;2023-03-05T01:58:42;5.80;99.90
45837;DHT22;31548;51.420;-0.040;2023-03-05T02:01:10;5.80;99.90
45837;DHT22;31548;51.420;-0.040;2023-03-05T02:03:38;5.80;99.90
45837;DHT22;31548;51.420;-0.040;2023-03-05T02:06:06;5.80;99.90
45837;DHT22;31548;51.420;-0.040;2023-03-05T02:08:33;5.80;99.90
45837;DHT22;31548;51.420;-0.040;2023-03-05T02:11:01;5.80;99.90
45837;DHT22;31548;51.420;-0.040;2023-03-05T02:13:31;5.80;99.90
45837;DHT22;31548;51.420;-0.040;2023-03-05T02:16:00;5.80;99.90
45837;DHT22;31548;51.420;-0.040;2023-03-05T02:18:28;5.80;99.90
45837;DHT22;31548;51.420;-0.040;2023-03-05T02:23:28;5.80;99.90
45837;DHT22;31548;51.420;-0.040;2023-03-05T02:25:56;5.80;99.90
45837;DHT22;31548;51.420;-0.040;2023-03-05T02:28:31;5.70;99.90
45837;DHT22;31548;51.420;-0.040;2023-03-05T02:31:00;5.70;99.90
45837;DHT22;31548;51.420;-0.040;2023-03-05T02:33:28;5.80;99.90
45837;DHT22;31548;51.420;-0.040;2023-03-05T02:35:55;5.70;99.90
45837;DHT22;31548;51.420;-0.040;2023-03-05T02:38:22;5.70;99.90
45837;DHT22;31548;51.420;-0.040;2023-03-05T02:40:51;5.70;99.90
45837;DHT22;31548;51.420;-0.040;2023-03-05T02:43:18;5.70;99.90
45837;DHT22;31548;51.420;-0.040;2023-03-05T02:45:45;5.70;99.90
45837;DHT22;31548;51.420;-0.040;2023-03-05T02:48:13;5.70;99.90
45837;DHT22;31548;51.420;-0.040;2023-03-05T02:50:41;5.70;99.90
45837;DHT22;31548;51.420;-0.040;2023-03-05T02:53:09;5.60;99.90
45837;DHT22;31548;51.420;-0.040;2023-03-05T02:55:37;5.70;99.90
45837;DHT22;31548;51.420;-0.040;2023-03-05T02:58:05;5.60;99.90
45837;DHT22;31548;51.420;-0.040;2023-03-05T03:00:32;5.50;99.90
45837;DHT22;31548;51.420;-0.040;2023-03-05T03:02:59;5.50;99.90
45837;DHT22;31548;51.420;-0.040;2023-03-05T03:05:27;5.50;99.90
45837;DHT22;31548;51.420;-0.040;2023-03-05T03:07:54;5.50;99.90
45837;DHT22;31548;51.420;-0.040;2023-03-05T03:10:22;5.50;99.90
45837;DHT22;31548;51.420;-0.040;2023-03-05T03:12:49;5.50;99.90
45837;DHT22;31548;51.420;-0.040;2023-03-05T03:15:17;5.50;99.90
45837;DHT22;31548;51.420;-0.040;2023-03-05T03:17:45;5.50;99.90
45837;DHT22;31548;51.420;-0.040;2023-03-05T03:20:14;5.50;99.90
45837;DHT22;31548;51.420;-0.040;2023-03-05T03:22:44;5.40;99.90
45837;DHT22;31548;51.420;-0.040;2023-03-05T03:25:18;5.40;99.90
45837;DHT22;31548;51.420;-0.040;2023-03-05T03:27:45;5.40;99.90
45837;DHT22;31548;51.420;-0.040;2023-03-05T03:30:13;5.40;99.90
45837;DHT22;31548;51.420;-0.040;2023-03-05T03:32:41;5.40;99.90
45837;DHT22;31548;51.420;-0.040;2023-03-05T03:35:10;5.40;99.90
45837;DHT22;31548;51.420;-0.040;2023-03-05T03:37:37;5.30;99.90
45837;DHT22;31548;51.420;-0.040;2023-03-05T03:40:06;5.30;99.90
45837;DHT22;31548;51.420;-0.040;2023-03-05T03:42:33;5.30;99.90
45837;DHT22;31548;51.420;-0.040;2023-03-05T03:45:01;5.30;99.90
45837;DHT22;31548;51.420;-0.040;2023-03-05T03:47:29;5.30;99.90
45837;DHT22;31548;51.420;-0.040;2023-03-05T03:49:57;5.30;99.90
45837;DHT22;31548;51.420;-0.040;2023-03-05T03:52:27;5.30;99.90
45837;DHT22;31548;51.420;-0.040;2023-03-05T03:54:54;5.30;99.90
45837;DHT22;31548;51.420;-0.040;2023-03-05T03:57:29;5.30;99.90
45837;DHT22;31548;51.420;-0.040;2023-03-05T03:59:57;5.30;99.90
45837;DHT22;31548;51.420;-0.040;2023-03-05T04:02:24;5.20;99.90
45837;DHT22;31548;51.420;-0.040;2023-03-05T04:04:52;5.20;99.90
45837;DHT22;31548;51.420;-0.040;2023-03-05T04:07:19;5.20;99.90
45837;DHT22;31548;51.420;-0.040;2023-03-05T04:09:47;5.20;99.90
45837;DHT22;31548;51.420;-0.040;2023-03-05T04:12:14;5.10;99.90
45837;DHT22;31548;51.420;-0.040;2023-03-05T04:14:47;5.10;99.90
45837;DHT22;31548;51.420;-0.040;2023-03-05T04:17:15;5.20;99.90
45837;DHT22;31548;51.420;-0.040;2023-03-05T04:19:43;5.10;99.90
45837;DHT22;31548;51.420;-0.040;2023-03-05T04:22:12;5.10;99.90
45837;DHT22;31548;51.420;-0.040;2023-03-05T04:24:40;5.10;99.90
45837;DHT22;31548;51.420;-0.040;2023-03-05T04:27:07;5.10;99.90
45837;DHT22;31548;51.420;-0.040;2023-03-05T04:29:35;5.10;99.90
45837;DHT22;31548;51.420;-0.040;2023-03-05T04:32:02;5.10;99.90
45837;DHT22;31548;51.420;-0.040;2023-03-05T04:34:30;5.00;99.90
45837;DHT22;31548;51.420;-0.040;2023-03-05T04:36:58;5.10;99.90
45837;DHT22;31548;51.420;-0.040;2023-03-05T04:39:26;5.10;99.90
45837;DHT22;31548;51.420;-0.040;2023-03-05T04:41:53;5.10;99.90
45837;DHT22;31548;51.420;-0.040;2023-03-05T04:44:21;5.10;99.90
45837;DHT22;31548;51.420;-0.040;2023-03-05T04:46:49;5.00;99.90
45837;DHT22;31548;51.420;-0.040;2023-03-05T04:49:16;5.10;99.90
45837;DHT22;31548;51.420;-0.040;2023-03-05T04:51:43;5.00;99.90
45837;DHT22;31548;51.420;-0.040;2023-03-05T04:54:11;5.00;99.90
45837;DHT22;31548;51.420;-0.040;2023-03-05T04:56:38;5.00;99.90
45837;DHT22;31548;51.420;-0.040;2023-03-05T04:59:05;5.00;99.90
45837;DHT22;31548;51.420;-0.040;2023-03-05T05:01:33;4.90;99.90
45837;DHT22;31548;51.420;-0.040;2023-03-05T05:04:01;5.00;99.90
45837;DHT22;31548;51.420;-0.040;2023-03-05T05:06:29;5.00;99.90
45837;DHT22;31548;51.420;-0.040;2023-03-05T05:08:56;4.90;99.90
45837;DHT22;31548;51.420;-0.040;2023-03-05T05:11:23;4.90;99.90
45837;DHT22;31548;51.420;-0.040;2023-03-05T05:13:51;4.90;99.90
45837;DHT22;31548;51.420;-0.040;2023-03-05T05:16:18;4.90;99.90
45837;DHT22;31548;51.420;-0.040;2023-03-05T05:18:46;5.00;99.90
45837;DHT22;31548;51.420;-0.040;2023-03-05T05:21:14;5.00;99.90
45837;DHT22;31548;51.420;-0.040;2023-03-05T05:23:41;4.90;99.90
45837;DHT22;31548;51.420;-0.040;2023-03-05T05:26:09;5.00;99.90
45837;DHT22;31548;51.420;-0.040;2023-03-05T05:28:41;4.90;99.90
45837;DHT22;31548;51.420;-0.040;2023-03-05T05:31:12;4.90;99.90
45837;DHT22;31548;51.420;-0.040;2023-03-05T05:33:40;4.80;99.90
45837;DHT22;31548;51.420;-0.040;2023-03-05T05:36:11;4.80;99.90
45837;DHT22;31548;51.420;-0.040;2023-03-05T05:38:39;4.80;99.90
45837;DHT22;31548;51.420;-0.040;2023-03-05T05:41:09;4.80;99.90
45837;DHT22;31548;51.420;-0.040;2023-03-05T05:43:37;4.90;99.90
45837;DHT22;31548;51.420;-0.040;2023-03-05T05:46:07;4.90;99.90
45837;DHT22;31548;51.420;-0.040;2023-03-05T05:48:36;4.80;99.90
45837;DHT22;31548;51.420;-0.040;2023-03-05T05:51:09;4.80;99.90
45837;DHT22;31548;51.420;-0.040;2023-03-05T05:53:38;4.80;99.90
45837;DHT22;31548;51.420;-0.040;2023-03-05T05:56:07;4.80;99.90
45837;DHT22;31548;51.420;-0.040;2023-03-05T05:58:36;4.80;99.90
45837;DHT22;31548;51.420;-0.040;2023-03-05T06:01:17;4.80;99.90
45837;DHT22;31548;51.420;-0.040;2023-03-05T06:03:45;4.80;99.90
45837;DHT22;31548;51.420;-0.040;2023-03-05T06:06:15;4.70;99.90
45837;DHT22;31548;51.420;-0.040;2023-03-05T06:08:43;4.70;99.90
45837;DHT22;31548;51.420;-0.040;2023-03-05T06:11:11;4.70;99.90
45837;DHT22;31548;51.420;-0.040;2023-03-05T06:13:38;4.70;99.90
45837;DHT22;31548;51.420;-0.040;2023-03-05T06:16:09;4.60;99.90
45837;DHT22;31548;51.420;-0.040;2023-03-05T06:18:37;4.60;99.90
45837;DHT22;31548;51.420;-0.040;2023-03-05T06:21:07;4.60;99.90
45837;DHT22;31548;51.420;-0.040;2023-03-05T06:23:35;4.60;99.90
45837;DHT22;31548;51.420;-0.040;2023-03-05T06:26:05;4.60;99.90
45837;DHT22;31548;51.420;-0.040;2023-03-05T06:28:33;4.60;99.90
45837;DHT22;31548;51.420;-0.040;2023-03-05T06:33:59;4.60;99.90
45837;DHT22;31548;51.420;-0.040;2023-03-05T06:36:29;4.60;99.90
45837;DHT22;31548;51.420;-0.040;2023-03-05T06:38:58;4.60;99.90
45837;DHT22;31548;51.420;-0.040;2023-03-05T06:41:27;4.60;99.90
45837;DHT22;31548;51.420;-0.040;2023-03-05T06:43:55;4.60;99.90
45837;DHT22;31548;51.420;-0.040;2023-03-05T06:46:26;4.60;99.90
45837;DHT22;31548;51.420;-0.040;2023-03-05T06:48:59;4.60;99.90
45837;DHT22;31548;51.420;-0.040;2023-03-05T06:51:29;4.60;99.90
45837;DHT22;31548;51.420;-0.040;2023-03-05T06:54:09;4.60;99.90
45837;DHT22;31548;51.420;-0.040;2023-03-05T06:56:39;4.60;99.90
45837;DHT22;31548;51.420;-0.040;2023-03-05T06:59:07;4.70;99.90
45837;DHT22;31548;51.420;-0.040;2023-03-05T07:01:35;4.60;99.90
45837;DHT22;31548;51.420;-0.040;2023-03-05T07:04:03;4.60;99.90
45837;DHT22;31548;51.420;-0.040;2023-03-05T07:06:32;4.60;99.90
45837;DHT22;31548;51.420;-0.040;2023-03-05T07:09:00;4.60;99.90
45837;DHT22;31548;51.420;-0.040;2023-03-05T07:11:28;4.60;99.90
45837;DHT22;31548;51.420;-0.040;2023-03-05T07:13:56;4.60;99.90
45837;DHT22;31548;51.420;-0.040;2023-03-05T07:16:25;4.60;99.90
45837;DHT22;31548;51.420;-0.040;2023-03-05T07:18:54;4.70;99.90
45837;DHT22;31548;51.420;-0.040;2023-03-05T07:21:28;4.70;99.90
45837;DHT22;31548;51.420;-0.040;2023-03-05T07:23:57;4.70;99.90
45837;DHT22;31548;51.420;-0.040;2023-03-05T07:26:26;4.70;99.90
45837;DHT22;31548;51.420;-0.040;2023-03-05T07:28:54;4.70;99.90
45837;DHT22;31548;51.420;-0.040;2023-03-05T07:31:23;4.70;99.90
45837;DHT22;31548;51.420;-0.040;2023-03-05T07:33:53;4.70;99.90
45837;DHT22;31548;51.420;-0.040;2023-03-05T07:36:20;4.70;99.90
45837;DHT22;31548;51.420;-0.040;2023-03-05T07:38:48;4.70;99.90
45837;DHT22;31548;51.420;-0.040;2023-03-05T07:41:17;4.80;99.90
45837;DHT22;31548;51.420;-0.040;2023-03-05T07:43:48;4.70;99.90
45837;DHT22;31548;51.420;-0.040;2023-03-05T07:46:16;4.80;99.90
45837;DHT22;31548;51.420;-0.040;2023-03-05T07:48:45;4.70;99.90
45837;DHT22;31548;51.420;-0.040;2023-03-05T07:51:15;4.70;99.90
45837;DHT22;31548;51.420;-0.040;2023-03-05T07:53:43;4.70;99.90
45837;DHT22;31548;51.420;-0.040;2023-03-05T07:56:12;4.70;99.90
45837;DHT22;31548;51.420;-0.040;2023-03-05T07:58:39;4.80;99.90
45837;DHT22;31548;51.420;-0.040;2023-03-05T08:01:11;4.70;99.90
45837;DHT22;31548;51.420;-0.040;2023-03-05T08:03:42;4.70;99.90
45837;DHT22;31548;51.420;-0.040;2023-03-05T08:06:11;4.70;99.90
45837;DHT22;31548;51.420;-0.040;2023-03-05T08:08:38;4.70;99.90
45837;DHT22;31548;51.420;-0.040;2023-03-05T08:11:08;4.70;99.90
45837;DHT22;31548;51.420;-0.040;2023-03-05T08:13:37;4.70;99.90
45837;DHT22;31548;51.420;-0.040;2023-03-05T08:16:06;4.70;99.90
45837;DHT22;31548;51.420;-0.040;2023-03-05T08:18:34;4.70;99.90
45837;DHT22;31548;51.420;-0.040;2023-03-05T08:21:03;4.80;99.90
45837;DHT22;31548;51.420;-0.040;2023-03-05T08:23:31;4.80;99.90
45837;DHT22;31548;51.420;-0.040;2023-03-05T08:26:00;4.80;99.90
45837;DHT22;31548;51.420;-0.040;2023-03-05T08:28:27;4.80;99.90
45837;DHT22;31548;51.420;-0.040;2023-03-05T08:30:55;4.70;99.90
45837;DHT22;31548;51.420;-0.040;2023-03-05T08:33:22;4.80;99.90
45837;DHT22;31548;51.420;-0.040;2023-03-05T08:35:49;4.70;99.90
45837;DHT22;31548;51.420;-0.040;2023-03-05T08:38:17;4.80;99.90
45837;DHT22;31548;51.420;-0.040;2023-03-05T08:40:47;4.80;99.90
45837;DHT22;31548;51.420;-0.040;2023-03-05T08:43:16;4.80;99.90
45837;DHT22;31548;51.420;-0.040;2023-03-05T08:45:43;4.90;99.90
45837;DHT22;31548;51.420;-0.040;2023-03-05T08:48:11;4.80;99.90
45837;DHT22;31548;51.420;-0.040;2023-03-05T08:50:39;4.80;99.90
45837;DHT22;31548;51.420;-0.040;2023-03-05T08:53:07;4.80;99.90
45837;DHT22;31548;51.420;-0.040;2023-03-05T08:55:34;4.90;99.90
45837;DHT22;31548;51.420;-0.040;2023-03-05T08:58:03;4.80;99.90
45837;DHT22;31548;51.420;-0.040;2023-03-05T09:00:33;4.80;99.90
45837;DHT22;31548;51.420;-0.040;2023-03-05T09:03:00;4.80;99.90
45837;DHT22;31548;51.420;-0.040;2023-03-05T09:05:28;4.80;99.90
45837;DHT22;31548;51.420;-0.040;2023-03-05T09:07:55;4.90;99.90
45837;DHT22;31548;51.420;-0.040;2023-03-05T09:10:24;4.90;99.90
45837;DHT22;31548;51.420;-0.040;2023-03-05T09:12:51;4.90;99.90
45837;DHT22;31548;51.420;-0.040;2023-03-05T09:15:19;5.00;99.90
45837;DHT22;31548;51.420;-0.040;2023-03-05T09:17:46;4.90;99.90
45837;DHT22;31548;51.420;-0.040;2023-03-05T09:20:14;4.90;99.90
45837;DHT22;31548;51.420;-0.040;2023-03-05T09:22:41;5.10;99.90
45837;DHT22;31548;51.420;-0.040;2023-03-05T09:25:10;5.00;99.90
45837;DHT22;31548;51.420;-0.040;2023-03-05T09:27:38;5.00;99.90
45837;DHT22;31548;51.420;-0.040;2023-03-05T09:30:06;5.10;99.90
45837;DHT22;31548;51.420;-0.040;2023-03-05T09:32:34;5.10;99.90
45837;DHT22;31548;51.420;-0.040;2023-03-05T09:35:01;5.10;99.90
45837;DHT22;31548;51.420;-0.040;2023-03-05T09:37:29;5.10;99.90
45837;DHT22;31548;51.420;-0.040;2023-03-05T09:39:57;5.20;99.90
45837;DHT22;31548;51.420;-0.040;2023-03-05T09:45:38;5.30;99.90
45837;DHT22;31548;51.420;-0.040;2023-03-05T09:53:37;5.30;99.90
45837;DHT22;31548;51.420;-0.040;2023-03-05T09:56:13;5.40;99.90
45837;DHT22;31548;51.420;-0.040;2023-03-05T09:58:43;5.40;99.90
45837;DHT22;31548;51.420;-0.040;2023-03-05T10:01:21;5.40;99.90
45837;DHT22;31548;51.420;-0.040;2023-03-05T10:03:58;5.50;99.90
45837;DHT22;31548;51.420;-0.040;2023-03-05T10:06:35;5.50;99.90
45837;DHT22;31548;51.420;-0.040;2023-03-05T10:12:18;5.50;99.90
45837;DHT22;31548;51.420;-0.040;2023-03-05T10:14:47;5.60;99.90
45837;DHT22;31548;51.420;-0.040;2023-03-05T10:19:58;5.60;99.90
45837;DHT22;31548;51.420;-0.040;2023-03-05T10:23:00;5.50;99.90
45837;DHT22;31548;51.420;-0.040;2023-03-05T10:26:00;5.50;99.90
45837;DHT22;31548;51.420;-0.040;2023-03-05T10:28:34;5.50;99.90
45837;DHT22;31548;51.420;-0.040;2023-03-05T10:31:04;5.60;99.90
45837;DHT22;31548;51.420;-0.040;2023-03-05T10:36:34;5.70;99.90
45837;DHT22;31548;51.420;-0.040;2023-03-05T10:44:47;5.60;99.90
45837;DHT22;31548;51.420;-0.040;2023-03-05T10:49:51;5.50;99.90
45837;DHT22;31548;51.420;-0.040;2023-03-05T10:52:34;5.60;99.90
45837;DHT22;31548;51.420;-0.040;2023-03-05T10:55:16;5.60;99.90
45837;DHT22;31548;51.420;-0.040;2023-03-05T10:57:44;5.70;99.90
45837;DHT22;31548;51.420;-0.040;2023-03-05T11:00:25;5.60;99.90
45837;DHT22;31548;51.420;-0.040;2023-03-05T11:03:13;5.60;99.90
45837;DHT22;31548;51.420;-0.040;2023-03-05T11:05:45;5.60;99.90
45837;DHT22;31548;51.420;-0.040;2023-03-05T11:08:29;5.70;99.90
45837;DHT22;31548;51.420;-0.040;2023-03-05T11:11:11;5.70;99.90
45837;DHT22;31548;51.420;-0.040;2023-03-05T11:14:00;5.60;99.90
45837;DHT22;31548;51.420;-0.040;2023-03-05T11:16:31;5.70;99.90
45837;DHT22;31548;51.420;-0.040;2023-03-05T11:21:42;5.80;99.90
45837;DHT22;31548;51.420;-0.040;2023-03-05T11:24:18;5.60;99.90
45837;DHT22;31548;51.420;-0.040;2023-03-05T11:26:56;5.60;99.90
45837;DHT22;31548;51.420;-0.040;2023-03-05T11:29:30;5.60;99.90
45837;DHT22;31548;51.420;-0.040;2023-03-05T11:32:21;5.60;99.90
45837;DHT22;31548;51.420;-0.040;2023-03-05T11:34:49;5.50;99.90
45837;DHT22;31548;51.420;-0.040;2023-03-05T11:37:35;5.50;99.90
45837;DHT22;31548;51.420;-0.040;2023-03-05T11:40:19;5.50;99.90
45837;DHT22;31548;51.420;-0.040;2023-03-05T11:42:54;5.70;99.90
45837;DHT22;31548;51.420;-0.040;2023-03-05T11:45:23;5.60;99.90
45837;DHT22;31548;51.420;-0.040;2023-03-05T11:47:56;5.70;99.90
45837;DHT22;31548;51.420;-0.040;2023-03-05T11:50:31;5.70;99.90
45837;DHT22;31548;51.420;-0.040;2023-03-05T11:53:03;5.70;99.90
45837;DHT22;31548;51.420;-0.040;2023-03-05T11:55:58;5.60;99.90
45837;DHT22;31548;51.420;-0.040;2023-03-05T11:58:38;5.60;99.90
45837;DHT22;31548;51.420;-0.040;2023-03-05T12:01:22;5.70;99.90
45837;DHT22;31548;51.420;-0.040;2023-03-05T12:03:50;5.70;99.90
45837;DHT22;31548;51.420;-0.040;2023-03-05T12:06:33;5.60;99.90
45837;DHT22;31548;51.420;-0.040;2023-03-05T12:09:11;5.60;99.90
45837;DHT22;31548;51.420;-0.040;2023-03-05T12:11:39;5.60;99.90
45837;DHT22;31548;51.420;-0.040;2023-03-05T12:17:07;5.50;99.90
45837;DHT22;31548;51.420;-0.040;2023-03-05T12:22:21;5.40;99.90
45837;DHT22;31548;51.420;-0.040;2023-03-05T12:24:49;5.40;99.90
45837;DHT22;31548;51.420;-0.040;2023-03-05T12:27:37;5.50;99.90
45837;DHT22;31548;51.420;-0.040;2023-03-05T12:30:51;5.50;99.90
45837;DHT22;31548;51.420;-0.040;2023-03-05T12:33:32;5.40;99.90
45837;DHT22;31548;51.420;-0.040;2023-03-05T12:38:56;5.40;99.90
45837;DHT22;31548;51.420;-0.040;2023-03-05T12:44:18;5.50;99.90
45837;DHT22;31548;51.420;-0.040;2023-03-05T12:47:15;5.50;99.90
45837;DHT22;31548;51.420;-0.040;2023-03-05T12:49:45;5.30;99.90
45837;DHT22;31548;51.420;-0.040;2023-03-05T12:52:24;5.20;99.90
45837;DHT22;31548;51.420;-0.040;2023-03-05T12:57:51;5.30;99.90
45837;DHT22;31548;51.420;-0.040;2023-03-05T13:00:42;5.30;99.90
45837;DHT22;31548;51.420;-0.040;2023-03-05T13:03:21;5.30;99.90
45837;DHT22;31548;51.420;-0.040;2023-03-05T13:05:52;5.10;99.90
45837;DHT22;31548;51.420;-0.040;2023-03-05T13:11:19;5.10;99.90
45837;DHT22;31548;51.420;-0.040;2023-03-05T13:13:46;5.20;99.90
45837;DHT22;31548;51.420;-0.040;2023-03-05T13:16:36;5.30;99.90
45837;DHT22;31548;51.420;-0.040;2023-03-05T13:19:14;5.50;99.90
45837;DHT22;31548;51.420;-0.040;2023-03-05T13:21:42;5.60;99.90
45837;DHT22;31548;51.420;-0.040;2023-03-05T13:24:18;5.50;99.90
45837;DHT22;31548;51.420;-0.040;2023-03-05T13:26:46;5.50;99.90
45837;DHT22;31548;51.420;-0.040;2023-03-05T13:29:16;5.50;99.90
45837;DHT22;31548;51.420;-0.040;2023-03-05T13:31:50;5.60;99.90
45837;DHT22;31548;51.420;-0.040;2023-03-05T13:34:24;5.60;99.90
45837;DHT22;31548;51.420;-0.040;2023-03-05T13:37:03;5.60;99.90
45837;DHT22;31548;51.420;-0.040;2023-03-05T13:39:43;5.70;99.90
45837;DHT22;31548;51.420;-0.040;2023-03-05T13:44:57;5.70;99.90
45837;DHT22;31548;51.420;-0.040;2023-03-05T13:47:27;5.70;99.90
45837;DHT22;31548;51.420;-0.040;2023-03-05T13:49:59;5.60;99.90
45837;DHT22;31548;51.420;-0.040;2023-03-05T13:52:32;5.80;99.90
45837;DHT22;31548;51.420;-0.040;2023-03-05T13:55:00;5.60;99.90
45837;DHT22;31548;51.420;-0.040;2023-03-05T13:57:37;5.70;99.90
45837;DHT22;31548;51.420;-0.040;2023-03-05T14:00:23;5.70;99.90
45837;DHT22;31548;51.420;-0.040;2023-03-05T14:02:53;5.60;99.90
45837;DHT22;31548;51.420;-0.040;2023-03-05T14:05:21;5.70;99.90
45837;DHT22;31548;51.420;-0.040;2023-03-05T14:07:50;5.70;99.90
45837;DHT22;31548;51.420;-0.040;2023-03-05T14:13:05;5.70;99.90
45837;DHT22;31548;51.420;-0.040;2023-03-05T14:15:37;5.70;99.90
45837;DHT22;31548;51.420;-0.040;2023-03-05T14:20:59;5.70;99.90
45837;DHT22;31548;51.420;-0.040;2023-03-05T14:23:34;5.50;99.90
45837;DHT22;31548;51.420;-0.040;2023-03-05T14:26:34;5.60;99.90
45837;DHT22;31548;51.420;-0.040;2023-03-05T14:32:07;5.60;99.90
45837;DHT22;31548;51.420;-0.040;2023-03-05T14:34:56;5.50;99.90
45837;DHT22;31548;51.420;-0.040;2023-03-05T14:37:32;5.50;99.90
45837;DHT22;31548;51.420;-0.040;2023-03-05T14:40:14;5.60;99.90
45837;DHT22;31548;51.420;-0.040;2023-03-05T14:45:35;5.50;99.90
45837;DHT22;31548;51.420;-0.040;2023-03-05T14:48:05;5.50;99.90
45837;DHT22;31548;51.420;-0.040;2023-03-05T14:50:37;5.60;99.90
45837;DHT22;31548;51.420;-0.040;2023-03-05T14:53:14;5.60;99.90
45837;DHT22;31548;51.420;-0.040;2023-03-05T14:55:42;5.50;99.90
45837;DHT22;31548;51.420;-0.040;2023-03-05T14:58:19;5.40;99.90
45837;DHT22;31548;51.420;-0.040;2023-03-05T15:00:48;5.40;99.90
45837;DHT22;31548;51.420;-0.040;2023-03-05T15:03:19;5.40;99.90
45837;DHT22;31548;51.420;-0.040;2023-03-05T15:05:49;5.40;99.90
45837;DHT22;31548;51.420;-0.040;2023-03-05T15:08:20;5.50;99.90
45837;DHT22;31548;51.420;-0.040;2023-03-05T15:10:49;5.50;99.90
45837;DHT22;31548;51.420;-0.040;2023-03-05T15:13:18;5.40;99.90
45837;DHT22;31548;51.420;-0.040;2023-03-05T15:15:49;5.50;99.90
45837;DHT22;31548;51.420;-0.040;2023-03-05T15:18:19;5.50;99.90
45837;DHT22;31548;51.420;-0.040;2023-03-05T15:20:47;5.50;99.90
45837;DHT22;31548;51.420;-0.040;2023-03-05T15:23:15;5.50;99.90
45837;DHT22;31548;51.420;-0.040;2023-03-05T15:25:42;5.50;99.90
45837;DHT22;31548;51.420;-0.040;2023-03-05T15:28:10;5.50;99.90
45837;DHT22;31548;51.420;-0.040;2023-03-05T15:30:44;5.50;99.90
45837;DHT22;31548;51.420;-0.040;2023-03-05T15:33:14;5.40;99.90
45837;DHT22;31548;51.420;-0.040;2023-03-05T15:35:42;5.40;99.90
45837;DHT22;31548;51.420;-0.040;2023-03-05T15:38:10;5.40;99.90
45837;DHT22;31548;51.420;-0.040;2023-03-05T15:40:38;5.30;99.90
45837;DHT22;31548;51.420;-0.040;2023-03-05T15:43:05;5.30;99.90
45837;DHT22;31548;51.420;-0.040;2023-03-05T15:45:33;5.40;99.90
45837;DHT22;31548;51.420;-0.040;2023-03-05T15:48:00;5.40;99.90
45837;DHT22;31548;51.420;-0.040;2023-03-05T15:50:28;5.40;99.90
45837;DHT22;31548;51.420;-0.040;2023-03-05T15:52:56;5.40;99.90
45837;DHT22;31548;51.420;-0.040;2023-03-05T15:55:24;5.50;99.90
45837;DHT22;31548;51.420;-0.040;2023-03-05T15:57:53;5.50;99.90
45837;DHT22;31548;51.420;-0.040;2023-03-05T16:00:30;5.50;99.90
45837;DHT22;31548;51.420;-0.040;2023-03-05T16:02:58;5.50;99.90
45837;DHT22;31548;51.420;-0.040;2023-03-05T16:05:26;5.60;99.90
45837;DHT22;31548;51.420;-0.040;2023-03-05T16:07:54;5.60;99.90
45837;DHT22;31548;51.420;-0.040;2023-03-05T16:10:25;5.60;99.90
45837;DHT22;31548;51.420;-0.040;2023-03-05T16:13:07;5.60;99.90
45837;DHT22;31548;51.420;-0.040;2023-03-05T16:15:38;5.60;99.90
45837;DHT22;31548;51.420;-0.040;2023-03-05T16:18:11;5.60;99.90
45837;DHT22;31548;51.420;-0.040;2023-03-05T16:20:41;5.60;99.90
45837;DHT22;31548;51.420;-0.040;2023-03-05T16:23:10;5.60;99.90
45837;DHT22;31548;51.420;-0.040;2023-03-05T16:25:38;5.60;99.90
45837;DHT22;31548;51.420;-0.040;2023-03-05T16:28:06;5.60;99.90
45837;DHT22;31548;51.420;-0.040;2023-03-05T16:30:33;5.70;99.90
45837;DHT22;31548;51.420;-0.040;2023-03-05T16:33:02;5.60;99.90
45837;DHT22;31548;51.420;-0.040;2023-03-05T16:35:30;5.60;99.90
45837;DHT22;31548;51.420;-0.040;2023-03-05T16:37:59;5.60;99.90
45837;DHT22;31548;51.420;-0.040;2023-03-05T16:40:27;5.60;99.90
45837;DHT22;31548;51.420;-0.040;2023-03-05T16:43:17;5.60;99.90
45837;DHT22;31548;51.420;-0.040;2023-03-05T16:45:45;5.60;99.90
45837;DHT22;31548;51.420;-0.040;2023-03-05T16:48:13;5.60;99.90
45837;DHT22;31548;51.420;-0.040;2023-03-05T16:50:41;5.60;99.90
45837;DHT22;31548;51.420;-0.040;2023-03-05T16:53:08;5.60;99.90
45837;DHT22;31548;51.420;-0.040;2023-03-05T16:55:37;5.60;99.90
45837;DHT22;31548;51.420;-0.040;2023-03-05T16:58:05;5.60;99.90
45837;DHT22;31548;51.420;-0.040;2023-03-05T17:00:33;5.60;99.90